sensor_id;sensor_type;location;lat;lon;timestamp;pressure;altitude;pressure_sealevel;temperature;humidity
54556;BME280;57291;37.520;15.106;2023-04-20T00:01:08;101047.03;;;13.32;63.10
54556;BME280;57291;37.520;15.106;2023-04-20T00:03:35;101041.88;;;13.30;63.09
54556;BME280;57291;37.520;15.106;2023-04-20T00:06:04;101041.38;;;13.28;63.42
54556;BME280;57291;37.520;15.106;2023-04-20T00:08:31;101033.50;;;13.27;63.65
54556;BME280;57291;37.520;15.106;2023-04-20T00:10:58;101029.13;;;13.26;64.08
54556;BME280;57291;37.520;15.106;2023-04-20T00:13:26;101027.81;;;13.23;64.19
54556;BME280;57291;37.520;15.106;2023-04-20T00:15:53;101021.56;;;13.23;64.24
54556;BME280;57291;37.520;15.106;2023-04-20T00:18:20;101017.19;;;13.22;64.60
54556;BME280;57291;37.520;15.106;2023-04-20T00:20:47;101016.38;;;13.21;64.65
54556;BME280;57291;37.520;15.106;2023-04-20T00:23:14;101017.69;;;13.24;65.13
54556;BME280;57291;37.520;15.106;2023-04-20T00:25:41;101008.72;;;13.23;65.01
54556;BME280;57291;37.520;15.106;2023-04-20T00:28:08;101013.88;;;13.25;65.23
54556;BME280;57291;37.520;15.106;2023-04-20T00:30:35;101005.69;;;13.25;65.56
54556;BME280;57291;37.520;15.106;2023-04-20T00:33:03;101000.81;;;13.22;65.57
54556;BME280;57291;37.520;15.106;2023-04-20T00:35:30;101001.13;;;13.20;65.85
54556;BME280;57291;37.520;15.106;2023-04-20T00:37:57;100997.88;;;13.18;66.01
54556;BME280;57291;37.520;15.106;2023-04-20T00:40:24;100992.44;;;13.18;66.23
54556;BME280;57291;37.520;15.106;2023-04-20T00:42:52;100996.56;;;13.15;66.30
54556;BME280;57291;37.520;15.106;2023-04-20T00:45:19;100993.66;;;13.12;66.52
54556;BME280;57291;37.520;15.106;2023-04-20T00:47:47;100992.66;;;13.08;66.69
54556;BME280;57291;37.520;15.106;2023-04-20T00:50:15;100990.53;;;13.05;67.10
54556;BME280;57291;37.520;15.106;2023-04-20T00:52:43;100983.28;;;13.00;67.50
54556;BME280;57291;37.520;15.106;2023-04-20T00:55:11;100983.28;;;13.00;67.59
54556;BME280;57291;37.520;15.106;2023-04-20T00:57:39;100979.22;;;12.98;67.64
54556;BME280;57291;37.520;15.106;2023-04-20T01:00:07;100983.38;;;12.95;67.91
54556;BME280;57291;37.520;15.106;2023-04-20T01:02:35;100985.09;;;12.91;67.80
54556;BME280;57291;37.520;15.106;2023-04-20T01:05:06;100984.28;;;12.90;68.26
54556;BME280;57291;37.520;15.106;2023-04-20T01:07:34;100987.31;;;12.89;68.17
54556;BME280;57291;37.520;15.106;2023-04-20T01:10:03;100984.91;;;12.87;68.30
54556;BME280;57291;37.520;15.106;2023-04-20T01:12:30;100987.72;;;12.82;68.47
54556;BME280;57291;37.520;15.106;2023-04-20T01:14:57;100986.72;;;12.78;68.44
54556;BME280;57291;37.520;15.106;2023-04-20T01:17:24;100984.91;;;12.74;68.72
54556;BME280;57291;37.520;15.106;2023-04-20T01:19:51;100984.59;;;12.75;68.83
54556;BME280;57291;37.520;15.106;2023-04-20T01:22:20;100985.41;;;12.76;69.01
54556;BME280;57291;37.520;15.106;2023-04-20T01:24:47;100986.81;;;12.73;68.84
54556;BME280;57291;37.520;15.106;2023-04-20T01:27:14;100987.91;;;12.72;69.23
54556;BME280;57291;37.520;15.106;2023-04-20T01:29:43;100979.53;;;12.68;69.21
54556;BME280;57291;37.520;15.106;2023-04-20T01:32:11;100976.91;;;12.63;69.32
54556;BME280;57291;37.520;15.106;2023-04-20T01:34:38;100977.22;;;12.62;69.60
54556;BME280;57291;37.520;15.106;2023-04-20T01:37:05;100971.25;;;12.60;69.83
54556;BME280;57291;37.520;15.106;2023-04-20T01:39:37;100970.56;;;12.54;69.51
54556;BME280;57291;37.520;15.106;2023-04-20T01:42:06;100974.78;;;12.47;69.62
54556;BME280;57291;37.520;15.106;2023-04-20T01:44:33;100978.72;;;12.40;69.73
54556;BME280;57291;37.520;15.106;2023-04-20T01:47:00;100973.16;;;12.32;70.12
54556;BME280;57291;37.520;15.106;2023-04-20T01:49:27;100981.03;;;12.33;70.30
54556;BME280;57291;37.520;15.106;2023-04-20T01:51:54;100972.75;;;12.38;70.41
54556;BME280;57291;37.520;15.106;2023-04-20T01:54:21;100968.91;;;12.39;70.52
54556;BME280;57291;37.520;15.106;2023-04-20T01:56:49;100968.63;;;12.41;70.16
54556;BME280;57291;37.520;15.106;2023-04-20T01:59:16;100959.66;;;12.40;69.89
54556;BME280;57291;37.520;15.106;2023-04-20T02:01:43;100959.94;;;12.39;70.38
54556;BME280;57291;37.520;15.106;2023-04-20T02:04:10;100960.25;;;12.37;70.49
54556;BME280;57291;37.520;15.106;2023-04-20T02:06:38;100955.91;;;12.36;70.57
54556;BME280;57291;37.520;15.106;2023-04-20T02:09:08;100949.94;;;12.34;70.72
54556;BME280;57291;37.520;15.106;2023-04-20T02:11:36;100951.03;;;12.33;70.83
54556;BME280;57291;37.520;15.106;2023-04-20T02:14:04;100947.31;;;12.29;70.57
54556;BME280;57291;37.520;15.106;2023-04-20T02:16:32;100949.03;;;12.25;71.03
54556;BME280;57291;37.520;15.106;2023-04-20T02:18:59;100944.19;;;12.22;71.00
54556;BME280;57291;37.520;15.106;2023-04-20T02:21:26;100940.34;;;12.23;71.30
54556;BME280;57291;37.520;15.106;2023-04-20T02:23:54;100940.06;;;12.25;71.14
54556;BME280;57291;37.520;15.106;2023-04-20T02:26:21;100937.00;;;12.26;71.47
54556;BME280;57291;37.520;15.106;2023-04-20T02:28:48;100939.72;;;12.26;71.78
54556;BME280;57291;37.520;15.106;2023-04-20T02:31:16;100928.84;;;12.26;71.54
54556;BME280;57291;37.520;15.106;2023-04-20T02:33:44;100927.22;;;12.25;71.45
54556;BME280;57291;37.520;15.106;2023-04-20T02:36:13;100925.63;;;12.24;71.45
54556;BME280;57291;37.520;15.106;2023-04-20T02:38:40;100921.25;;;12.23;71.69
54556;BME280;57291;37.520;15.106;2023-04-20T02:41:07;100915.00;;;12.23;71.60
54556;BME280;57291;37.520;15.106;2023-04-20T02:43:35;100913.59;;;12.25;71.84
54556;BME280;57291;37.520;15.106;2023-04-20T02:46:03;100909.28;;;12.24;71.61
54556;BME280;57291;37.520;15.106;2023-04-20T02:48:30;100897.34;;;12.20;71.70
54556;BME280;57291;37.520;15.106;2023-04-20T02:50:58;100903.09;;;12.18;71.91
54556;BME280;57291;37.520;15.106;2023-04-20T02:53:31;100907.22;;;12.16;72.30
54556;BME280;57291;37.520;15.106;2023-04-20T02:56:18;100908.03;;;12.16;72.82
54556;BME280;57291;37.520;15.106;2023-04-20T02:58:51;100904.50;;;12.16;72.85
54556;BME280;57291;37.520;15.106;2023-04-20T03:01:21;100905.91;;;12.13;73.04
54556;BME280;57291;37.520;15.106;2023-04-20T03:03:56;100908.16;;;12.11;73.08
54556;BME280;57291;37.520;15.106;2023-04-20T03:06:23;100902.69;;;12.11;73.77
54556;BME280;57291;37.520;15.106;2023-04-20T03:08:54;100909.75;;;12.12;73.71
54556;BME280;57291;37.520;15.106;2023-04-20T03:11:46;100902.38;;;12.13;74.13
54556;BME280;57291;37.520;15.106;2023-04-20T03:14:27;100905.09;;;12.13;74.13
54556;BME280;57291;37.520;15.106;2023-04-20T03:16:54;100899.13;;;12.11;74.58
54556;BME280;57291;37.520;15.106;2023-04-20T03:19:22;100899.66;;;12.13;74.86
54556;BME280;57291;37.520;15.106;2023-04-20T03:21:52;100905.41;;;12.11;75.07
54556;BME280;57291;37.520;15.106;2023-04-20T03:24:19;100900.78;;;12.12;75.34
54556;BME280;57291;37.520;15.106;2023-04-20T03:26:46;100896.94;;;12.13;75.54
54556;BME280;57291;37.520;15.106;2023-04-20T03:29:16;100894.53;;;12.11;76.00
54556;BME280;57291;37.520;15.106;2023-04-20T03:31:44;100906.22;;;12.12;76.05
54556;BME280;57291;37.520;15.106;2023-04-20T03:34:11;100905.69;;;12.10;76.34
54556;BME280;57291;37.520;15.106;2023-04-20T03:36:39;100907.94;;;12.08;76.36
54556;BME280;57291;37.520;15.106;2023-04-20T03:39:06;100912.28;;;12.09;76.78
54556;BME280;57291;37.520;15.106;2023-04-20T03:41:34;100923.44;;;12.07;76.89
54556;BME280;57291;37.520;15.106;2023-04-20T03:44:01;100924.28;;;12.08;77.46
54556;BME280;57291;37.520;15.106;2023-04-20T03:46:28;100930.22;;;12.10;77.67
54556;BME280;57291;37.520;15.106;2023-04-20T03:48:55;100927.00;;;12.08;77.61
54556;BME280;57291;37.520;15.106;2023-04-20T03:51:23;100929.00;;;12.02;78.10
54556;BME280;57291;37.520;15.106;2023-04-20T03:53:50;100932.00;;;12.01;78.11
54556;BME280;57291;37.520;15.106;2023-04-20T03:56:17;100928.81;;;11.99;78.56
54556;BME280;57291;37.520;15.106;2023-04-20T03:58:44;100932.31;;;11.99;78.69
54556;BME280;57291;37.520;15.106;2023-04-20T04:01:15;100936.66;;;12.00;79.01
54556;BME280;57291;37.520;15.106;2023-04-20T04:03:46;100936.97;;;11.99;79.00
54556;BME280;57291;37.520;15.106;2023-04-20T04:06:13;100941.91;;;11.96;79.20
54556;BME280;57291;37.520;15.106;2023-04-20T04:08:41;100944.94;;;11.95;79.38
54556;BME280;57291;37.520;15.106;2023-04-20T04:11:08;100951.91;;;12.01;79.98
54556;BME280;57291;37.520;15.106;2023-04-20T04:13:36;100953.13;;;12.09;80.10
54556;BME280;57291;37.520;15.106;2023-04-20T04:16:06;100952.53;;;12.12;79.97
54556;BME280;57291;37.520;15.106;2023-04-20T04:18:33;100948.09;;;12.16;79.81
54556;BME280;57291;37.520;15.106;2023-04-20T04:21:05;100950.53;;;12.17;80.00
54556;BME280;57291;37.520;15.106;2023-04-20T04:23:38;100948.03;;;12.21;80.08
54556;BME280;57291;37.520;15.106;2023-04-20T04:26:14;100958.00;;;12.26;79.58
54556;BME280;57291;37.520;15.106;2023-04-20T04:28:43;100966.09;;;12.31;79.50
54556;BME280;57291;37.520;15.106;2023-04-20T04:31:15;100967.59;;;12.37;79.57
54556;BME280;57291;37.520;15.106;2023-04-20T04:33:45;100955.28;;;12.39;79.34
54556;BME280;57291;37.520;15.106;2023-04-20T04:36:25;100967.19;;;12.43;78.91
54556;BME280;57291;37.520;15.106;2023-04-20T04:38:55;100967.19;;;12.43;79.12
54556;BME280;57291;37.520;15.106;2023-04-20T04:41:22;100958.13;;;12.48;79.12
54556;BME280;57291;37.520;15.106;2023-04-20T04:43:50;100958.84;;;12.54;79.40
54556;BME280;57291;37.520;15.106;2023-04-20T04:46:23;100964.38;;;12.62;79.11
54556;BME280;57291;37.520;15.106;2023-04-20T04:48:51;100965.91;;;12.68;78.98
54556;BME280;57291;37.520;15.106;2023-04-20T04:51:18;100962.50;;;12.77;78.74
54556;BME280;57291;37.520;15.106;2023-04-20T04:53:45;100955.38;;;12.89;78.59
54556;BME280;57291;37.520;15.106;2023-04-20T04:56:13;100964.06;;;13.05;78.65
54556;BME280;57291;37.520;15.106;2023-04-20T04:58:40;100965.63;;;13.34;78.42
54556;BME280;57291;37.520;15.106;2023-04-20T05:01:07;100976.16;;;13.63;78.10
54556;BME280;57291;37.520;15.106;2023-04-20T05:03:34;100957.84;;;14.08;77.85
54556;BME280;57291;37.520;15.106;2023-04-20T05:06:02;100964.38;;;14.61;77.01
54556;BME280;57291;37.520;15.106;2023-04-20T05:08:29;100964.19;;;15.32;75.67
54556;BME280;57291;37.520;15.106;2023-04-20T05:10:56;100965.34;;;15.75;72.80
54556;BME280;57291;37.520;15.106;2023-04-20T05:13:23;100970.81;;;15.75;71.43
54556;BME280;57291;37.520;15.106;2023-04-20T05:15:52;100966.78;;;15.63;71.04
54556;BME280;57291;37.520;15.106;2023-04-20T05:18:19;100967.78;;;15.67;71.04
54556;BME280;57291;37.520;15.106;2023-04-20T05:20:46;100966.25;;;16.05;70.83
54556;BME280;57291;37.520;15.106;2023-04-20T05:23:13;100969.00;;;16.90;68.82
54556;BME280;57291;37.520;15.106;2023-04-20T05:25:40;100969.00;;;17.41;64.53
54556;BME280;57291;37.520;15.106;2023-04-20T05:28:08;100973.06;;;18.10;63.99
54556;BME280;57291;37.520;15.106;2023-04-20T05:30:35;100968.13;;;18.85;61.09
54556;BME280;57291;37.520;15.106;2023-04-20T05:33:02;100966.84;;;18.58;60.64
54556;BME280;57291;37.520;15.106;2023-04-20T05:35:30;100959.53;;;18.87;61.86
54556;BME280;57291;37.520;15.106;2023-04-20T05:37:57;100966.50;;;19.49;60.56
54556;BME280;57291;37.520;15.106;2023-04-20T05:40:28;100964.25;;;20.55;57.40
54556;BME280;57291;37.520;15.106;2023-04-20T05:42:55;100966.94;;;21.02;56.07
54556;BME280;57291;37.520;15.106;2023-04-20T05:45:22;100957.34;;;21.51;55.33
54556;BME280;57291;37.520;15.106;2023-04-20T05:47:53;100967.84;;;22.04;53.53
54556;BME280;57291;37.520;15.106;2023-04-20T05:50:23;100968.59;;;22.43;51.51
54556;BME280;57291;37.520;15.106;2023-04-20T05:52:52;100968.66;;;22.73;50.44
54556;BME280;57291;37.520;15.106;2023-04-20T05:55:19;100962.69;;;22.94;50.03
54556;BME280;57291;37.520;15.106;2023-04-20T05:57:50;100975.31;;;23.82;49.23
54556;BME280;57291;37.520;15.106;2023-04-20T06:00:18;100977.84;;;24.35;46.89
54556;BME280;57291;37.520;15.106;2023-04-20T06:02:45;100975.13;;;23.34;46.96
54556;BME280;57291;37.520;15.106;2023-04-20T06:05:13;100967.34;;;23.77;48.12
54556;BME280;57291;37.520;15.106;2023-04-20T06:07:40;100955.81;;;24.53;47.28
54556;BME280;57291;37.520;15.106;2023-04-20T06:10:08;100961.84;;;24.66;45.62
54556;BME280;57291;37.520;15.106;2023-04-20T06:12:35;100963.22;;;24.93;43.64
54556;BME280;57291;37.520;15.106;2023-04-20T06:15:02;100959.94;;;25.39;43.42
54556;BME280;57291;37.520;15.106;2023-04-20T06:17:34;100954.84;;;24.86;43.74
54556;BME280;57291;37.520;15.106;2023-04-20T06:20:02;100953.09;;;25.26;43.11
54556;BME280;57291;37.520;15.106;2023-04-20T06:22:32;100953.78;;;25.09;43.34
54556;BME280;57291;37.520;15.106;2023-04-20T06:24:59;100957.66;;;23.97;45.81
54556;BME280;57291;37.520;15.106;2023-04-20T06:27:26;100968.06;;;24.07;45.52
54556;BME280;57291;37.520;15.106;2023-04-20T06:29:53;100969.72;;;23.78;46.51
54556;BME280;57291;37.520;15.106;2023-04-20T06:32:21;100972.56;;;24.67;44.37
54556;BME280;57291;37.520;15.106;2023-04-20T06:34:48;100983.09;;;24.95;42.89
54556;BME280;57291;37.520;15.106;2023-04-20T06:37:16;100984.88;;;25.18;43.36
54556;BME280;57291;37.520;15.106;2023-04-20T06:39:43;100981.38;;;25.35;43.21
54556;BME280;57291;37.520;15.106;2023-04-20T06:42:10;100982.63;;;25.48;42.29
54556;BME280;57291;37.520;15.106;2023-04-20T06:44:38;100986.47;;;25.22;42.53
54556;BME280;57291;37.520;15.106;2023-04-20T06:47:06;100982.31;;;24.43;43.71
54556;BME280;57291;37.520;15.106;2023-04-20T06:49:34;101000.72;;;24.21;44.37
54556;BME280;57291;37.520;15.106;2023-04-20T06:52:03;101001.44;;;23.47;45.42
54556;BME280;57291;37.520;15.106;2023-04-20T06:54:31;101006.63;;;23.52;45.64
54556;BME280;57291;37.520;15.106;2023-04-20T06:56:58;100995.81;;;23.70;45.68
54556;BME280;57291;37.520;15.106;2023-04-20T06:59:25;100997.22;;;23.57;45.90
54556;BME280;57291;37.520;15.106;2023-04-20T07:01:52;100994.09;;;23.32;46.46
54556;BME280;57291;37.520;15.106;2023-04-20T07:04:19;100998.84;;;22.32;48.45
54556;BME280;57291;37.520;15.106;2023-04-20T07:06:48;100995.47;;;21.42;50.66
54556;BME280;57291;37.520;15.106;2023-04-20T07:09:19;101004.66;;;20.47;53.32
54556;BME280;57291;37.520;15.106;2023-04-20T07:11:46;100997.09;;;19.84;54.66
54556;BME280;57291;37.520;15.106;2023-04-20T07:14:13;100989.66;;;19.08;57.30
54556;BME280;57291;37.520;15.106;2023-04-20T07:16:43;100981.63;;;18.41;59.60
54556;BME280;57291;37.520;15.106;2023-04-20T07:19:11;100988.63;;;18.05;60.86
54556;BME280;57291;37.520;15.106;2023-04-20T07:21:39;100991.56;;;17.46;63.36
54556;BME280;57291;37.520;15.106;2023-04-20T07:24:06;100992.09;;;17.40;63.95
54556;BME280;57291;37.520;15.106;2023-04-20T07:26:33;100991.56;;;17.25;64.42
54556;BME280;57291;37.520;15.106;2023-04-20T07:29:00;100993.19;;;16.97;66.03
54556;BME280;57291;37.520;15.106;2023-04-20T07:31:27;100997.13;;;16.87;66.60
54556;BME280;57291;37.520;15.106;2023-04-20T07:33:54;101006.06;;;16.67;67.96
54556;BME280;57291;37.520;15.106;2023-04-20T07:36:22;101001.28;;;16.55;69.24
54556;BME280;57291;37.520;15.106;2023-04-20T07:38:49;101010.28;;;16.64;70.08
54556;BME280;57291;37.520;15.106;2023-04-20T07:41:16;101010.44;;;17.06;68.72
54556;BME280;57291;37.520;15.106;2023-04-20T07:43:44;101018.78;;;18.02;66.46
54556;BME280;57291;37.520;15.106;2023-04-20T07:46:19;101021.59;;;18.84;63.62
54556;BME280;57291;37.520;15.106;2023-04-20T07:48:49;101016.25;;;19.40;60.93
54556;BME280;57291;37.520;15.106;2023-04-20T07:51:16;101020.75;;;19.85;58.85
54556;BME280;57291;37.520;15.106;2023-04-20T07:53:43;101021.22;;;20.31;58.67
54556;BME280;57291;37.520;15.106;2023-04-20T07:56:11;101019.81;;;21.01;56.71
54556;BME280;57291;37.520;15.106;2023-04-20T07:58:38;101027.84;;;21.25;56.24
54556;BME280;57291;37.520;15.106;2023-04-20T08:01:06;101029.56;;;21.65;54.44
54556;BME280;57291;37.520;15.106;2023-04-20T08:03:33;101029.41;;;21.77;52.38
54556;BME280;57291;37.520;15.106;2023-04-20T08:06:01;101033.25;;;22.31;52.37
54556;BME280;57291;37.520;15.106;2023-04-20T08:08:29;101026.22;;;21.95;53.06
54556;BME280;57291;37.520;15.106;2023-04-20T08:10:56;101027.22;;;21.32;55.69
54556;BME280;57291;37.520;15.106;2023-04-20T08:13:27;101029.66;;;22.31;52.75
54556;BME280;57291;37.520;15.106;2023-04-20T08:15:55;101028.59;;;22.35;52.91
54556;BME280;57291;37.520;15.106;2023-04-20T08:18:28;101030.63;;;22.38;52.40
54556;BME280;57291;37.520;15.106;2023-04-20T08:20:56;101019.25;;;22.24;52.42
54556;BME280;57291;37.520;15.106;2023-04-20T08:23:23;101025.88;;;22.39;51.92
54556;BME280;57291;37.520;15.106;2023-04-20T08:25:53;101014.41;;;22.17;52.55
54556;BME280;57291;37.520;15.106;2023-04-20T08:28:22;101016.81;;;21.80;54.43
54556;BME280;57291;37.520;15.106;2023-04-20T08:31:00;101023.44;;;21.56;54.79
54556;BME280;57291;37.520;15.106;2023-04-20T08:33:27;101033.78;;;21.59;55.02
54556;BME280;57291;37.520;15.106;2023-04-20T08:35:54;101026.44;;;21.67;55.11
54556;BME280;57291;37.520;15.106;2023-04-20T08:38:22;101024.38;;;21.44;55.58
54556;BME280;57291;37.520;15.106;2023-04-20T08:41:00;101015.91;;;20.86;57.20
54556;BME280;57291;37.520;15.106;2023-04-20T08:43:27;101007.28;;;20.12;58.21
54556;BME280;57291;37.520;15.106;2023-04-20T08:45:59;100994.50;;;19.63;59.43
54556;BME280;57291;37.520;15.106;2023-04-20T08:48:30;100997.41;;;19.55;58.99
54556;BME280;57291;37.520;15.106;2023-04-20T08:51:03;100979.59;;;19.00;60.89
54556;BME280;57291;37.520;15.106;2023-04-20T08:53:31;100995.41;;;18.66;62.69
54556;BME280;57291;37.520;15.106;2023-04-20T08:55:59;100989.78;;;18.50;63.29
54556;BME280;57291;37.520;15.106;2023-04-20T08:58:30;100981.16;;;18.51;64.11
54556;BME280;57291;37.520;15.106;2023-04-20T09:00:58;100978.75;;;17.92;65.40
54556;BME280;57291;37.520;15.106;2023-04-20T09:03:36;100998.66;;;17.89;66.28
54556;BME280;57291;37.520;15.106;2023-04-20T09:06:04;101013.47;;;18.30;65.59
54556;BME280;57291;37.520;15.106;2023-04-20T09:08:40;101017.75;;;18.64;64.24
54556;BME280;57291;37.520;15.106;2023-04-20T09:11:21;101013.97;;;18.69;63.46
54556;BME280;57291;37.520;15.106;2023-04-20T09:14:06;101015.06;;;18.31;63.71
54556;BME280;57291;37.520;15.106;2023-04-20T09:16:36;101005.19;;;17.64;66.30
54556;BME280;57291;37.520;15.106;2023-04-20T09:19:05;100997.97;;;17.08;68.32
54556;BME280;57291;37.520;15.106;2023-04-20T09:21:35;100997.53;;;16.98;69.59
54556;BME280;57291;37.520;15.106;2023-04-20T09:24:04;101004.53;;;16.95;70.50
54556;BME280;57291;37.520;15.106;2023-04-20T09:26:34;101004.91;;;17.15;70.79
54556;BME280;57291;37.520;15.106;2023-04-20T09:29:03;101007.38;;;17.49;69.31
54556;BME280;57291;37.520;15.106;2023-04-20T09:31:41;100997.34;;;17.74;68.14
54556;BME280;57291;37.520;15.106;2023-04-20T09:34:08;100996.88;;;17.93;68.24
54556;BME280;57291;37.520;15.106;2023-04-20T09:36:36;100996.53;;;17.95;67.37
54556;BME280;57291;37.520;15.106;2023-04-20T09:39:15;101005.63;;;17.87;67.37
54556;BME280;57291;37.520;15.106;2023-04-20T09:41:43;100989.34;;;18.15;67.22
54556;BME280;57291;37.520;15.106;2023-04-20T09:44:11;100990.56;;;18.50;66.99
54556;BME280;57291;37.520;15.106;2023-04-20T09:46:40;100991.94;;;18.69;65.18
54556;BME280;57291;37.520;15.106;2023-04-20T09:49:09;100987.09;;;18.29;66.25
54556;BME280;57291;37.520;15.106;2023-04-20T09:51:39;100988.00;;;18.21;66.57
54556;BME280;57291;37.520;15.106;2023-04-20T09:54:13;100984.97;;;18.01;66.86
54556;BME280;57291;37.520;15.106;2023-04-20T09:56:42;100980.72;;;17.71;68.23
54556;BME280;57291;37.520;15.106;2023-04-20T09:59:10;100969.97;;;17.57;68.63
54556;BME280;57291;37.520;15.106;2023-04-20T10:01:37;100960.00;;;17.52;68.94
54556;BME280;57291;37.520;15.106;2023-04-20T10:04:06;100958.72;;;17.71;68.83
54556;BME280;57291;37.520;15.106;2023-04-20T10:06:35;100962.97;;;18.01;67.82
54556;BME280;57291;37.520;15.106;2023-04-20T10:09:05;100966.34;;;18.32;67.28
54556;BME280;57291;37.520;15.106;2023-04-20T10:11:38;100958.09;;;18.32;66.51
54556;BME280;57291;37.520;15.106;2023-04-20T10:14:24;100951.09;;;18.22;66.67
54556;BME280;57291;37.520;15.106;2023-04-20T10:17:05;100954.50;;;18.07;67.97
54556;BME280;57291;37.520;15.106;2023-04-20T10:19:44;100946.66;;;17.96;68.65
54556;BME280;57291;37.520;15.106;2023-04-20T10:22:13;100946.28;;;18.19;67.89
54556;BME280;57291;37.520;15.106;2023-04-20T10:24:50;100954.88;;;18.17;67.92
54556;BME280;57291;37.520;15.106;2023-04-20T10:27:19;100955.63;;;18.05;68.70
54556;BME280;57291;37.520;15.106;2023-04-20T10:29:47;100952.88;;;18.05;69.17
54556;BME280;57291;37.520;15.106;2023-04-20T10:32:25;100954.03;;;18.04;69.24
54556;BME280;57291;37.520;15.106;2023-04-20T10:35:06;100958.25;;;17.69;71.10
54556;BME280;57291;37.520;15.106;2023-04-20T10:37:34;100954.56;;;17.65;71.41
54556;BME280;57291;37.520;15.106;2023-04-20T10:40:02;100942.31;;;17.62;71.83
54556;BME280;57291;37.520;15.106;2023-04-20T10:42:45;100941.97;;;17.64;71.64
54556;BME280;57291;37.520;15.106;2023-04-20T10:45:12;100937.41;;;17.68;71.85
54556;BME280;57291;37.520;15.106;2023-04-20T10:47:39;100941.59;;;17.86;71.44
54556;BME280;57291;37.520;15.106;2023-04-20T10:52:37;100936.84;;;18.08;70.53
54556;BME280;57291;37.520;15.106;2023-04-20T10:55:16;100932.28;;;18.12;70.65
54556;BME280;57291;37.520;15.106;2023-04-20T10:57:44;100939.16;;;18.18;70.44
54556;BME280;57291;37.520;15.106;2023-04-20T11:00:38;100940.00;;;18.31;69.78
54556;BME280;57291;37.520;15.106;2023-04-20T11:03:05;100935.75;;;18.21;69.39
54556;BME280;57291;37.520;15.106;2023-04-20T11:05:32;100932.97;;;18.21;69.46
54556;BME280;57291;37.520;15.106;2023-04-20T11:07:59;100930.16;;;18.30;69.71
54556;BME280;57291;37.520;15.106;2023-04-20T11:10:40;100926.69;;;18.57;68.50
54556;BME280;57291;37.520;15.106;2023-04-20T11:13:23;100929.88;;;18.22;68.86
54556;BME280;57291;37.520;15.106;2023-04-20T11:15:51;100937.78;;;18.12;69.89
54556;BME280;57291;37.520;15.106;2023-04-20T11:18:18;100933.09;;;18.24;69.76
54556;BME280;57291;37.520;15.106;2023-04-20T11:20:51;100930.13;;;18.17;69.89
54556;BME280;57291;37.520;15.106;2023-04-20T11:23:20;100928.63;;;18.08;70.50
54556;BME280;57291;37.520;15.106;2023-04-20T11:25:51;100928.28;;;18.21;70.08
54556;BME280;57291;37.520;15.106;2023-04-20T11:28:18;100924.25;;;18.19;69.60
54556;BME280;57291;37.520;15.106;2023-04-20T11:30:45;100927.06;;;18.43;69.22
54556;BME280;57291;37.520;15.106;2023-04-20T11:33:13;100919.56;;;18.19;68.84
54556;BME280;57291;37.520;15.106;2023-04-20T11:35:41;100919.31;;;18.12;69.77
54556;BME280;57291;37.520;15.106;2023-04-20T11:38:08;100914.63;;;18.13;69.86
54556;BME280;57291;37.520;15.106;2023-04-20T11:40:36;100928.06;;;18.26;69.39
54556;BME280;57291;37.520;15.106;2023-04-20T11:43:03;100915.56;;;18.41;68.84
54556;BME280;57291;37.520;15.106;2023-04-20T11:45:31;100905.59;;;18.49;67.88
54556;BME280;57291;37.520;15.106;2023-04-20T11:48:03;100899.38;;;18.03;70.01
54556;BME280;57291;37.520;15.106;2023-04-20T11:50:31;100881.09;;;17.74;70.93
54556;BME280;57291;37.520;15.106;2023-04-20T11:52:58;100881.22;;;17.77;70.75
54556;BME280;57291;37.520;15.106;2023-04-20T11:55:25;100892.59;;;17.88;70.33
54556;BME280;57291;37.520;15.106;2023-04-20T11:57:52;100884.94;;;17.94;70.66
54556;BME280;57291;37.520;15.106;2023-04-20T12:00:19;100892.72;;;18.16;70.14
54556;BME280;57291;37.520;15.106;2023-04-20T12:02:46;100890.69;;;18.25;69.62
54556;BME280;57291;37.520;15.106;2023-04-20T12:05:14;100888.72;;;18.01;69.95
54556;BME280;57291;37.520;15.106;2023-04-20T12:07:41;100891.13;;;17.91;71.41
54556;BME280;57291;37.520;15.106;2023-04-20T12:10:09;100891.44;;;17.77;72.46
54556;BME280;57291;37.520;15.106;2023-04-20T12:12:36;100889.25;;;17.83;72.59
54556;BME280;57291;37.520;15.106;2023-04-20T12:15:04;100896.50;;;17.87;72.14
54556;BME280;57291;37.520;15.106;2023-04-20T12:17:32;100892.59;;;17.88;71.71
54556;BME280;57291;37.520;15.106;2023-04-20T12:19:59;100886.50;;;17.83;71.88
54556;BME280;57291;37.520;15.106;2023-04-20T12:22:26;100894.22;;;17.68;72.45
54556;BME280;57291;37.520;15.106;2023-04-20T12:24:54;100892.22;;;17.44;73.35
54556;BME280;57291;37.520;15.106;2023-04-20T12:27:21;100878.91;;;17.46;73.42
54556;BME280;57291;37.520;15.106;2023-04-20T12:29:48;100870.72;;;17.58;72.76
54556;BME280;57291;37.520;15.106;2023-04-20T12:32:15;100868.03;;;17.71;72.08
54556;BME280;57291;37.520;15.106;2023-04-20T12:34:42;100861.81;;;17.62;72.58
54556;BME280;57291;37.520;15.106;2023-04-20T12:37:09;100847.41;;;17.44;72.81
54556;BME280;57291;37.520;15.106;2023-04-20T12:39:36;100858.16;;;17.37;73.51
54556;BME280;57291;37.520;15.106;2023-04-20T12:42:03;100863.59;;;17.45;73.70
54556;BME280;57291;37.520;15.106;2023-04-20T12:44:31;100844.66;;;17.44;72.99
54556;BME280;57291;37.520;15.106;2023-04-20T12:46:58;100846.88;;;17.50;73.89
54556;BME280;57291;37.520;15.106;2023-04-20T12:49:25;100846.66;;;17.55;74.52
54556;BME280;57291;37.520;15.106;2023-04-20T12:51:52;100844.94;;;17.51;75.07